sensor_id;sensor_type;location;lat;lon;timestamp;pressure;altitude;pressure_sealevel;temperature;humidity
12358;BME280;6243;51.244;6.774;2023-06-14T00:00:03;152970.50;;;21.79;50.38
12358;BME280;6243;51.244;6.774;2023-06-14T00:02:29;152938.44;;;21.66;50.87
12358;BME280;6243;51.244;6.774;2023-06-14T00:04:54;152930.72;;;21.63;51.44
12358;BME280;6243;51.244;6.774;2023-06-14T00:07:33;152920.47;;;21.59;51.94
12358;BME280;6243;51.244;6.774;2023-06-14T00:09:59;152953.81;;;21.72;51.35
12358;BME280;6243;51.244;6.774;2023-06-14T00:12:24;152944.84;;;21.69;51.15
12358;BME280;6243;51.244;6.774;2023-06-14T00:14:50;153035.94;;;22.05;49.04
12358;BME280;6243;51.244;6.774;2023-06-14T00:17:16;152979.47;;;21.82;48.97
12358;BME280;6243;51.244;6.774;2023-06-14T00:19:41;153025.69;;;22.01;48.34
12358;BME280;6243;51.244;6.774;2023-06-14T00:22:07;153071.84;;;22.19;48.09
12358;BME280;6243;51.244;6.774;2023-06-14T00:24:34;153057.75;;;22.13;47.74
12358;BME280;6243;51.244;6.774;2023-06-14T00:26:59;153014.13;;;21.96;48.10
12358;BME280;6243;51.244;6.774;2023-06-14T00:29:24;152894.88;;;21.49;48.77
12358;BME280;6243;51.244;6.774;2023-06-14T00:31:50;152925.59;;;21.61;48.59
12358;BME280;6243;51.244;6.774;2023-06-14T00:34:16;152912.78;;;21.56;49.01
12358;BME280;6243;51.244;6.774;2023-06-14T00:36:41;152916.66;;;21.58;48.88
12358;BME280;6243;51.244;6.774;2023-06-14T00:39:07;152869.22;;;21.39;50.81
12358;BME280;6243;51.244;6.774;2023-06-14T00:41:33;152861.50;;;21.36;51.11
12358;BME280;6243;51.244;6.774;2023-06-14T00:43:59;152873.03;;;21.41;50.97
12358;BME280;6243;51.244;6.774;2023-06-14T00:46:24;152826.91;;;21.23;52.00
12358;BME280;6243;51.244;6.774;2023-06-14T00:48:50;152842.31;;;21.29;51.68
12358;BME280;6243;51.244;6.774;2023-06-14T00:51:15;152802.53;;;21.13;51.88
12358;BME280;6243;51.244;6.774;2023-06-14T00:53:41;152844.84;;;21.30;51.28
12358;BME280;6243;51.244;6.774;2023-06-14T00:56:07;152907.66;;;21.54;50.41
12358;BME280;6243;51.244;6.774;2023-06-14T00:58:33;152966.63;;;21.77;49.86
12358;BME280;6243;51.244;6.774;2023-06-14T01:00:59;152958.97;;;21.74;49.61
12358;BME280;6243;51.244;6.774;2023-06-14T01:03:25;152865.38;;;21.38;50.39
12358;BME280;6243;51.244;6.774;2023-06-14T01:05:56;152861.50;;;21.36;50.25
12358;BME280;6243;51.244;6.774;2023-06-14T01:08:26;152884.59;;;21.45;50.28
12358;BME280;6243;51.244;6.774;2023-06-14T01:10:56;152923.06;;;21.60;50.26
12358;BME280;6243;51.244;6.774;2023-06-14T01:13:28;152987.22;;;21.85;48.98
12358;BME280;6243;51.244;6.774;2023-06-14T01:15:59;152951.28;;;21.71;49.45
12358;BME280;6243;51.244;6.774;2023-06-14T01:18:24;152928.19;;;21.62;49.51
12358;BME280;6243;51.244;6.774;2023-06-14T01:20:50;152984.63;;;21.84;49.22
12358;BME280;6243;51.244;6.774;2023-06-14T01:23:17;153010.31;;;21.95;49.21
12358;BME280;6243;51.244;6.774;2023-06-14T01:25:43;153003.88;;;21.92;48.96
12358;BME280;6243;51.244;6.774;2023-06-14T01:28:09;153009.00;;;21.94;48.72
12358;BME280;6243;51.244;6.774;2023-06-14T01:30:36;153023.09;;;22.00;49.20
12358;BME280;6243;51.244;6.774;2023-06-14T01:33:04;153009.00;;;21.94;48.68
12358;BME280;6243;51.244;6.774;2023-06-14T01:35:31;153001.31;;;21.91;49.14
12358;BME280;6243;51.244;6.774;2023-06-14T01:37:56;153002.59;;;21.92;49.31
12358;BME280;6243;51.244;6.774;2023-06-14T01:40:24;153002.59;;;21.92;49.26
12358;BME280;6243;51.244;6.774;2023-06-14T01:42:51;152982.09;;;21.83;49.43
12358;BME280;6243;51.244;6.774;2023-06-14T01:45:17;153001.31;;;21.91;49.38
12358;BME280;6243;51.244;6.774;2023-06-14T01:47:44;152970.50;;;21.79;49.76
12358;BME280;6243;51.244;6.774;2023-06-14T01:50:10;152967.94;;;21.78;49.88
12358;BME280;6243;51.244;6.774;2023-06-14T01:52:36;152987.22;;;21.85;49.68
12358;BME280;6243;51.244;6.774;2023-06-14T01:55:02;152980.75;;;21.83;49.56
12358;BME280;6243;51.244;6.774;2023-06-14T01:57:29;152991.06;;;21.87;49.51
12358;BME280;6243;51.244;6.774;2023-06-14T01:59:54;152958.97;;;21.74;49.77
12358;BME280;6243;51.244;6.774;2023-06-14T02:02:20;152953.81;;;21.72;50.00
12358;BME280;6243;51.244;6.774;2023-06-14T02:04:45;152942.25;;;21.68;50.16
12358;BME280;6243;51.244;6.774;2023-06-14T02:07:11;152946.16;;;21.69;50.49
12358;BME280;6243;51.244;6.774;2023-06-14T02:09:36;152911.53;;;21.56;50.72
12358;BME280;6243;51.244;6.774;2023-06-14T02:12:02;152910.25;;;21.55;50.71
12358;BME280;6243;51.244;6.774;2023-06-14T02:14:29;152870.50;;;21.40;51.30
12358;BME280;6243;51.244;6.774;2023-06-14T02:16:54;152805.13;;;21.14;52.32
12358;BME280;6243;51.244;6.774;2023-06-14T02:19:20;152687.19;;;20.68;53.38
12358;BME280;6243;51.244;6.774;2023-06-14T02:21:46;152748.72;;;20.92;52.70
12358;BME280;6243;51.244;6.774;2023-06-14T02:24:12;152632.13;;;20.46;53.74
12358;BME280;6243;51.244;6.774;2023-06-14T02:26:38;152628.25;;;20.44;53.87
12358;BME280;6243;51.244;6.774;2023-06-14T02:29:03;152703.84;;;20.74;52.78
12358;BME280;6243;51.244;6.774;2023-06-14T02:31:30;152659.00;;;20.57;53.25
12358;BME280;6243;51.244;6.774;2023-06-14T02:33:56;152684.66;;;20.67;52.87
12358;BME280;6243;51.244;6.774;2023-06-14T02:36:21;152684.66;;;20.67;53.12
12358;BME280;6243;51.244;6.774;2023-06-14T02:38:47;152710.25;;;20.77;53.23
12358;BME280;6243;51.244;6.774;2023-06-14T02:41:12;152674.41;;;20.63;53.58
12358;BME280;6243;51.244;6.774;2023-06-14T02:43:38;152753.84;;;20.94;53.04
12358;BME280;6243;51.244;6.774;2023-06-14T02:46:03;152757.66;;;20.95;53.06
12358;BME280;6243;51.244;6.774;2023-06-14T02:48:30;152766.66;;;20.99;52.61
12358;BME280;6243;51.244;6.774;2023-06-14T02:50:56;152797.44;;;21.11;52.30
12358;BME280;6243;51.244;6.774;2023-06-14T02:53:21;152655.19;;;20.55;53.80
12358;BME280;6243;51.244;6.774;2023-06-14T02:55:47;152574.50;;;20.23;54.69
12358;BME280;6243;51.244;6.774;2023-06-14T02:58:12;152469.44;;;19.82;56.75
12358;BME280;6243;51.244;6.774;2023-06-14T03:00:38;152438.69;;;19.70;57.23
12358;BME280;6243;51.244;6.774;2023-06-14T03:03:03;152382.38;;;19.48;58.12
12358;BME280;6243;51.244;6.774;2023-06-14T03:05:30;152548.81;;;20.13;55.87
12358;BME280;6243;51.244;6.774;2023-06-14T03:07:56;152578.31;;;20.25;55.16
12358;BME280;6243;51.244;6.774;2023-06-14T03:10:21;152489.91;;;19.90;55.91
12358;BME280;6243;51.244;6.774;2023-06-14T03:12:47;152434.88;;;19.68;56.18
12358;BME280;6243;51.244;6.774;2023-06-14T03:15:12;152396.44;;;19.53;56.83
12358;BME280;6243;51.244;6.774;2023-06-14T03:17:38;152315.75;;;19.22;58.02
12358;BME280;6243;51.244;6.774;2023-06-14T03:20:05;152341.38;;;19.32;57.48
12358;BME280;6243;51.244;6.774;2023-06-14T03:22:32;152329.84;;;19.27;57.84
12358;BME280;6243;51.244;6.774;2023-06-14T03:24:57;152356.75;;;19.38;57.62
12358;BME280;6243;51.244;6.774;2023-06-14T03:27:23;152378.50;;;19.46;57.36
12358;BME280;6243;51.244;6.774;2023-06-14T03:29:48;152240.25;;;18.92;60.16
12358;BME280;6243;51.244;6.774;2023-06-14T03:32:14;152268.41;;;19.03;59.76
12358;BME280;6243;51.244;6.774;2023-06-14T03:34:39;152244.13;;;18.93;60.12
12358;BME280;6243;51.244;6.774;2023-06-14T03:37:05;152249.25;;;18.95;60.47
12358;BME280;6243;51.244;6.774;2023-06-14T03:39:32;152287.63;;;19.10;59.54
12358;BME280;6243;51.244;6.774;2023-06-14T03:41:57;152342.66;;;19.32;59.78
12358;BME280;6243;51.244;6.774;2023-06-14T03:44:24;152277.38;;;19.06;60.66
12358;BME280;6243;51.244;6.774;2023-06-14T03:46:51;152281.22;;;19.08;60.72
12358;BME280;6243;51.244;6.774;2023-06-14T03:49:17;152260.75;;;19.00;60.83
12358;BME280;6243;51.244;6.774;2023-06-14T03:51:42;152180.16;;;18.68;62.70
12358;BME280;6243;51.244;6.774;2023-06-14T03:54:08;152176.28;;;18.67;63.58
12358;BME280;6243;51.244;6.774;2023-06-14T03:56:35;152244.13;;;18.93;62.58
12358;BME280;6243;51.244;6.774;2023-06-14T03:59:01;152231.31;;;18.88;63.40
12358;BME280;6243;51.244;6.774;2023-06-14T04:01:27;152272.28;;;19.04;62.67
12358;BME280;6243;51.244;6.774;2023-06-14T04:03:53;152285.09;;;19.09;63.28
12358;BME280;6243;51.244;6.774;2023-06-14T04:06:18;152262.06;;;19.00;63.84
12358;BME280;6243;51.244;6.774;2023-06-14T04:08:44;152285.09;;;19.09;64.00
12358;BME280;6243;51.244;6.774;2023-06-14T04:11:09;152267.16;;;19.02;63.99
12358;BME280;6243;51.244;6.774;2023-06-14T04:13:36;152297.84;;;19.14;63.81
12358;BME280;6243;51.244;6.774;2023-06-14T04:16:02;152378.50;;;19.46;62.31
12358;BME280;6243;51.244;6.774;2023-06-14T04:18:27;152415.66;;;19.61;61.61
12358;BME280;6243;51.244;6.774;2023-06-14T04:20:52;152436.16;;;19.69;60.95
12358;BME280;6243;51.244;6.774;2023-06-14T04:23:18;152452.78;;;19.75;60.11
12358;BME280;6243;51.244;6.774;2023-06-14T04:25:44;152459.22;;;19.78;60.03
12358;BME280;6243;51.244;6.774;2023-06-14T04:28:09;152486.06;;;19.89;59.74
12358;BME280;6243;51.244;6.774;2023-06-14T04:30:36;152541.09;;;20.10;59.26
12358;BME280;6243;51.244;6.774;2023-06-14T04:33:02;152564.16;;;20.19;59.14
12358;BME280;6243;51.244;6.774;2023-06-14T04:35:27;152579.59;;;20.25;58.23
12358;BME280;6243;51.244;6.774;2023-06-14T04:37:53;152606.47;;;20.36;58.39
12358;BME280;6243;51.244;6.774;2023-06-14T04:40:18;152623.13;;;20.42;58.44
12358;BME280;6243;51.244;6.774;2023-06-14T04:42:44;152671.81;;;20.62;57.68
12358;BME280;6243;51.244;6.774;2023-06-14T04:45:09;152703.84;;;20.74;57.00
12358;BME280;6243;51.244;6.774;2023-06-14T04:47:36;152738.44;;;20.88;56.12
12358;BME280;6243;51.244;6.774;2023-06-14T04:50:02;152758.94;;;20.96;55.24
12358;BME280;6243;51.244;6.774;2023-06-14T04:52:27;152787.19;;;21.07;55.30
12358;BME280;6243;51.244;6.774;2023-06-14T04:54:53;152828.19;;;21.23;54.26
12358;BME280;6243;51.244;6.774;2023-06-14T04:57:18;152812.84;;;21.17;54.82
12358;BME280;6243;51.244;6.774;2023-06-14T04:59:44;152837.16;;;21.27;55.13
12358;BME280;6243;51.244;6.774;2023-06-14T05:02:09;152849.97;;;21.32;54.46
12358;BME280;6243;51.244;6.774;2023-06-14T05:04:36;152864.09;;;21.37;54.21
12358;BME280;6243;51.244;6.774;2023-06-14T05:07:02;152910.25;;;21.55;53.37
12358;BME280;6243;51.244;6.774;2023-06-14T05:09:28;152873.03;;;21.41;53.20
12358;BME280;6243;51.244;6.774;2023-06-14T05:11:53;152960.22;;;21.75;52.25
12358;BME280;6243;51.244;6.774;2023-06-14T05:14:19;152984.63;;;21.84;51.99
12358;BME280;6243;51.244;6.774;2023-06-14T05:16:44;152937.16;;;21.66;51.76
12358;BME280;6243;51.244;6.774;2023-06-14T05:19:10;152992.34;;;21.87;52.05
12358;BME280;6243;51.244;6.774;2023-06-14T05:21:37;153001.31;;;21.91;52.31
12358;BME280;6243;51.244;6.774;2023-06-14T05:24:02;153030.81;;;22.03;51.86
12358;BME280;6243;51.244;6.774;2023-06-14T05:26:28;153051.34;;;22.11;51.64
12358;BME280;6243;51.244;6.774;2023-06-14T05:28:54;153080.84;;;22.22;51.48
12358;BME280;6243;51.244;6.774;2023-06-14T05:31:19;153105.19;;;22.32;51.34
12358;BME280;6243;51.244;6.774;2023-06-14T05:33:45;153133.38;;;22.43;50.87
12358;BME280;6243;51.244;6.774;2023-06-14T05:36:10;153141.09;;;22.46;51.15
12358;BME280;6243;51.244;6.774;2023-06-14T05:38:37;153155.22;;;22.51;51.02
12358;BME280;6243;51.244;6.774;2023-06-14T05:41:02;153186.03;;;22.64;49.17
12358;BME280;6243;51.244;6.774;2023-06-14T05:43:28;153147.53;;;22.48;49.14
12358;BME280;6243;51.244;6.774;2023-06-14T05:45:53;153173.19;;;22.58;49.56
12358;BME280;6243;51.244;6.774;2023-06-14T05:48:19;153143.69;;;22.47;48.44
12358;BME280;6243;51.244;6.774;2023-06-14T05:50:44;153139.81;;;22.45;48.47
12358;BME280;6243;51.244;6.774;2023-06-14T05:53:10;153178.38;;;22.61;49.84
12358;BME280;6243;51.244;6.774;2023-06-14T05:55:37;153223.25;;;22.78;48.81
12358;BME280;6243;51.244;6.774;2023-06-14T05:58:02;153265.63;;;22.95;49.03
12358;BME280;6243;51.244;6.774;2023-06-14T06:00:28;153313.13;;;23.13;48.10
12358;BME280;6243;51.244;6.774;2023-06-14T06:02:53;153359.31;;;23.32;47.53
12358;BME280;6243;51.244;6.774;2023-06-14T06:05:19;153372.16;;;23.37;47.78
12358;BME280;6243;51.244;6.774;2023-06-14T06:07:44;153463.34;;;23.72;46.89
12358;BME280;6243;51.244;6.774;2023-06-14T06:10:10;153521.13;;;23.95;46.65
12358;BME280;6243;51.244;6.774;2023-06-14T06:12:37;153519.81;;;23.94;46.48
12358;BME280;6243;51.244;6.774;2023-06-14T06:15:03;153441.53;;;23.64;47.23
12358;BME280;6243;51.244;6.774;2023-06-14T06:17:28;153491.59;;;23.83;46.11
12358;BME280;6243;51.244;6.774;2023-06-14T06:19:54;153506.97;;;23.89;47.15
12358;BME280;6243;51.244;6.774;2023-06-14T06:22:19;153454.34;;;23.69;45.53
12358;BME280;6243;51.244;6.774;2023-06-14T06:24:45;153504.44;;;23.88;45.77
12358;BME280;6243;51.244;6.774;2023-06-14T06:27:10;153578.97;;;24.18;44.71
12358;BME280;6243;51.244;6.774;2023-06-14T06:29:37;153666.31;;;24.52;44.33
12358;BME280;6243;51.244;6.774;2023-06-14T06:32:03;153611.06;;;24.30;44.63
12358;BME280;6243;51.244;6.774;2023-06-14T06:34:29;153621.38;;;24.34;44.40
12358;BME280;6243;51.244;6.774;2023-06-14T06:36:54;153546.78;;;24.05;44.84
12358;BME280;6243;51.244;6.774;2023-06-14T06:39:20;153531.38;;;23.99;45.31
12358;BME280;6243;51.244;6.774;2023-06-14T06:41:45;153584.09;;;24.20;44.72
12358;BME280;6243;51.244;6.774;2023-06-14T06:44:10;153549.41;;;24.06;44.49
12358;BME280;6243;51.244;6.774;2023-06-14T06:46:38;153595.66;;;24.24;43.93
12358;BME280;6243;51.244;6.774;2023-06-14T06:49:04;153644.47;;;24.43;43.84
12358;BME280;6243;51.244;6.774;2023-06-14T06:51:29;153742.16;;;24.82;44.09
12358;BME280;6243;51.244;6.774;2023-06-14T06:53:55;153762.69;;;24.90;43.23
12358;BME280;6243;51.244;6.774;2023-06-14T06:56:20;153790.97;;;25.01;42.98
12358;BME280;6243;51.244;6.774;2023-06-14T06:58:46;153848.84;;;25.23;42.68
12358;BME280;6243;51.244;6.774;2023-06-14T07:01:12;153941.44;;;25.60;43.16
12358;BME280;6243;51.244;6.774;2023-06-14T07:03:38;153950.41;;;25.63;42.45
12358;BME280;6243;51.244;6.774;2023-06-14T07:06:04;153931.13;;;25.56;41.37
12358;BME280;6243;51.244;6.774;2023-06-14T07:08:29;153928.56;;;25.55;41.91
12358;BME280;6243;51.244;6.774;2023-06-14T07:10:55;153913.16;;;25.49;41.14
12358;BME280;6243;51.244;6.774;2023-06-14T07:13:21;153883.56;;;25.37;41.25
12358;BME280;6243;51.244;6.774;2023-06-14T07:15:46;154009.56;;;25.86;41.11
12358;BME280;6243;51.244;6.774;2023-06-14T07:18:12;154077.75;;;26.13;39.34
12358;BME280;6243;51.244;6.774;2023-06-14T07:20:39;154131.78;;;26.34;39.10
12358;BME280;6243;51.244;6.774;2023-06-14T07:23:04;154171.66;;;26.50;39.89
12358;BME280;6243;51.244;6.774;2023-06-14T07:25:30;154174.25;;;26.51;39.02
12358;BME280;6243;51.244;6.774;2023-06-14T07:27:55;154184.53;;;26.55;38.76
12358;BME280;6243;51.244;6.774;2023-06-14T07:30:21;154109.94;;;26.26;39.08
12358;BME280;6243;51.244;6.774;2023-06-14T07:32:47;154162.69;;;26.46;38.75
12358;BME280;6243;51.244;6.774;2023-06-14T07:35:13;154205.09;;;26.63;38.71
12358;BME280;6243;51.244;6.774;2023-06-14T07:37:39;154260.50;;;26.85;38.20
12358;BME280;6243;51.244;6.774;2023-06-14T07:40:06;154117.63;;;26.29;37.87
12358;BME280;6243;51.244;6.774;2023-06-14T07:42:32;154104.81;;;26.24;38.24
12358;BME280;6243;51.244;6.774;2023-06-14T07:44:58;154103.50;;;26.23;38.08
12358;BME280;6243;51.244;6.774;2023-06-14T07:47:23;154162.69;;;26.46;36.99
12358;BME280;6243;51.244;6.774;2023-06-14T07:49:49;154184.53;;;26.55;36.89
12358;BME280;6243;51.244;6.774;2023-06-14T07:52:14;154063.59;;;26.08;37.36
12358;BME280;6243;51.244;6.774;2023-06-14T07:54:41;154148.50;;;26.41;37.52
12358;BME280;6243;51.244;6.774;2023-06-14T07:57:07;154130.50;;;26.34;37.69
12358;BME280;6243;51.244;6.774;2023-06-14T07:59:32;154207.69;;;26.64;37.82
12358;BME280;6243;51.244;6.774;2023-06-14T08:01:58;154180.69;;;26.53;37.63
12358;BME280;6243;51.244;6.774;2023-06-14T08:04:23;154220.56;;;26.69;37.09
12358;BME280;6243;51.244;6.774;2023-06-14T08:06:49;154283.66;;;26.94;36.91
12358;BME280;6243;51.244;6.774;2023-06-14T08:09:14;154319.69;;;27.08;36.98
12358;BME280;6243;51.244;6.774;2023-06-14T08:11:41;154158.78;;;26.45;36.67
12358;BME280;6243;51.244;6.774;2023-06-14T08:14:08;154243.78;;;26.78;36.46
12358;BME280;6243;51.244;6.774;2023-06-14T08:16:33;154229.56;;;26.72;36.65
12358;BME280;6243;51.244;6.774;2023-06-14T08:18:59;154301.69;;;27.01;36.22
12358;BME280;6243;51.244;6.774;2023-06-14T08:21:24;154367.31;;;27.26;35.54
12358;BME280;6243;51.244;6.774;2023-06-14T08:23:50;154359.59;;;27.23;35.61
12358;BME280;6243;51.244;6.774;2023-06-14T08:26:16;154434.28;;;27.53;36.07
12358;BME280;6243;51.244;6.774;2023-06-14T08:28:43;154362.13;;;27.24;35.67
12358;BME280;6243;51.244;6.774;2023-06-14T08:31:08;154373.75;;;27.29;35.68
12358;BME280;6243;51.244;6.774;2023-06-14T08:33:34;154246.31;;;26.79;36.68
12358;BME280;6243;51.244;6.774;2023-06-14T08:35:59;154354.44;;;27.21;36.66
12358;BME280;6243;51.244;6.774;2023-06-14T08:38:25;154368.56;;;27.27;35.70
12358;BME280;6243;51.244;6.774;2023-06-14T08:40:50;154475.47;;;27.69;35.93
12358;BME280;6243;51.244;6.774;2023-06-14T08:43:18;154479.31;;;27.70;36.84
12358;BME280;6243;51.244;6.774;2023-06-14T08:45:46;154420.16;;;27.47;36.87
12358;BME280;6243;51.244;6.774;2023-06-14T08:48:13;154481.91;;;27.71;36.53
12358;BME280;6243;51.244;6.774;2023-06-14T08:50:40;154507.69;;;27.81;35.89
12358;BME280;6243;51.244;6.774;2023-06-14T08:53:08;154494.81;;;27.76;35.72
12358;BME280;6243;51.244;6.774;2023-06-14T08:55:33;154511.53;;;27.83;36.40
12358;BME280;6243;51.244;6.774;2023-06-14T08:57:59;154547.59;;;27.97;36.88
12358;BME280;6243;51.244;6.774;2023-06-14T09:00:25;154362.13;;;27.24;36.90
12358;BME280;6243;51.244;6.774;2023-06-14T09:02:53;154445.88;;;27.57;37.01
12358;BME280;6243;51.244;6.774;2023-06-14T09:05:18;154529.56;;;27.90;37.09
12358;BME280;6243;51.244;6.774;2023-06-14T09:07:44;154588.88;;;28.13;37.78
12358;BME280;6243;51.244;6.774;2023-06-14T09:10:11;154659.72;;;28.41;37.21
12358;BME280;6243;51.244;6.774;2023-06-14T09:12:37;154641.66;;;28.34;37.34
12358;BME280;6243;51.244;6.774;2023-06-14T09:15:03;154659.72;;;28.41;36.67
12358;BME280;6243;51.244;6.774;2023-06-14T09:17:29;154637.78;;;28.32;36.26
12358;BME280;6243;51.244;6.774;2023-06-14T09:19:56;154599.16;;;28.17;36.09
12358;BME280;6243;51.244;6.774;2023-06-14T09:22:22;154570.81;;;28.06;36.77
12358;BME280;6243;51.244;6.774;2023-06-14T09:24:47;154537.25;;;27.93;37.03
12358;BME280;6243;51.244;6.774;2023-06-14T09:27:15;154570.81;;;28.06;36.79
12358;BME280;6243;51.244;6.774;2023-06-14T09:29:40;154520.53;;;27.86;36.71
12358;BME280;6243;51.244;6.774;2023-06-14T09:32:06;154494.81;;;27.76;36.97
12358;BME280;6243;51.244;6.774;2023-06-14T09:34:33;154493.50;;;27.76;36.03
12358;BME280;6243;51.244;6.774;2023-06-14T09:37:00;154465.19;;;27.65;37.67
12358;BME280;6243;51.244;6.774;2023-06-14T09:39:25;154454.91;;;27.61;37.13
12358;BME280;6243;51.244;6.774;2023-06-14T09:41:51;154492.22;;;27.75;36.79
12358;BME280;6243;51.244;6.774;2023-06-14T09:44:16;154426.53;;;27.50;36.14
12358;BME280;6243;51.244;6.774;2023-06-14T09:46:43;154485.78;;;27.73;36.24
12358;BME280;6243;51.244;6.774;2023-06-14T09:49:09;154458.75;;;27.62;36.91
12358;BME280;6243;51.244;6.774;2023-06-14T09:51:37;154481.91;;;27.71;36.78
12358;BME280;6243;51.244;6.774;2023-06-14T09:54:14;154532.13;;;27.91;37.14
12358;BME280;6243;51.244;6.774;2023-06-14T09:56:42;154524.44;;;27.88;36.93
12358;BME280;6243;51.244;6.774;2023-06-14T09:59:10;154595.31;;;28.16;35.86
12358;BME280;6243;51.244;6.774;2023-06-14T10:01:41;154596.56;;;28.16;35.23
12358;BME280;6243;51.244;6.774;2023-06-14T10:04:07;154440.72;;;27.55;35.65
12358;BME280;6243;51.244;6.774;2023-06-14T10:06:36;154458.75;;;27.62;36.42
12358;BME280;6243;51.244;6.774;2023-06-14T10:09:03;154499.94;;;27.78;36.60
12358;BME280;6243;51.244;6.774;2023-06-14T10:11:30;154569.53;;;28.05;36.54
12358;BME280;6243;51.244;6.774;2023-06-14T10:13:57;154604.31;;;28.19;36.28
12358;BME280;6243;51.244;6.774;2023-06-14T10:16:26;154556.66;;;28.00;35.36
12358;BME280;6243;51.244;6.774;2023-06-14T10:19:02;154550.16;;;27.98;35.34
12358;BME280;6243;51.244;6.774;2023-06-14T10:21:37;154547.59;;;27.97;35.96
12358;BME280;6243;51.244;6.774;2023-06-14T10:24:08;154559.25;;;28.01;36.08
12358;BME280;6243;51.244;6.774;2023-06-14T10:26:50;154532.13;;;27.91;36.05
12358;BME280;6243;51.244;6.774;2023-06-14T10:29:15;154520.53;;;27.86;35.55
12358;BME280;6243;51.244;6.774;2023-06-14T10:31:42;154560.53;;;28.02;35.03
12358;BME280;6243;51.244;6.774;2023-06-14T10:34:08;154608.16;;;28.21;35.82
12358;BME280;6243;51.244;6.774;2023-06-14T10:36:34;154676.44;;;28.47;35.53
12358;BME280;6243;51.244;6.774;2023-06-14T10:39:01;154460.06;;;27.63;36.30
12358;BME280;6243;51.244;6.774;2023-06-14T10:41:29;154378.91;;;27.31;37.30
12358;BME280;6243;51.244;6.774;2023-06-14T10:47:00;154512.84;;;27.83;36.37
12358;BME280;6243;51.244;6.774;2023-06-14T10:49:37;154425.28;;;27.49;35.82
12358;BME280;6243;51.244;6.774;2023-06-14T10:52:04;154304.22;;;27.02;36.63
12358;BME280;6243;51.244;6.774;2023-06-14T10:54:30;154418.84;;;27.47;37.08
12358;BME280;6243;51.244;6.774;2023-06-14T10:56:56;154444.56;;;27.57;37.56
12358;BME280;6243;51.244;6.774;2023-06-14T10:59:23;154570.81;;;28.06;37.05
12358;BME280;6243;51.244;6.774;2023-06-14T11:01:57;154570.81;;;28.06;36.30
12358;BME280;6243;51.244;6.774;2023-06-14T11:04:31;154668.69;;;28.44;35.32
12358;BME280;6243;51.244;6.774;2023-06-14T11:07:20;154671.28;;;28.45;35.95
12358;BME280;6243;51.244;6.774;2023-06-14T11:10:05;154557.94;;;28.01;36.12
12358;BME280;6243;51.244;6.774;2023-06-14T11:12:36;154555.34;;;28.00;35.95
12358;BME280;6243;51.244;6.774;2023-06-14T11:15:02;154503.81;;;27.80;36.64
12358;BME280;6243;51.244;6.774;2023-06-14T11:17:27;154405.97;;;27.41;36.82
12358;BME280;6243;51.244;6.774;2023-06-14T11:20:10;154275.91;;;26.91;38.23
12358;BME280;6243;51.244;6.774;2023-06-14T11:22:40;154144.66;;;26.39;38.99
12358;BME280;6243;51.244;6.774;2023-06-14T11:25:08;154328.69;;;27.11;38.53
12358;BME280;6243;51.244;6.774;2023-06-14T11:27:34;154448.47;;;27.58;37.41
12358;BME280;6243;51.244;6.774;2023-06-14T11:29:59;154456.16;;;27.61;37.15
12358;BME280;6243;51.244;6.774;2023-06-14T11:32:25;154496.09;;;27.77;36.47
12358;BME280;6243;51.244;6.774;2023-06-14T11:34:51;154529.56;;;27.90;36.66
12358;BME280;6243;51.244;6.774;2023-06-14T11:37:18;154463.91;;;27.64;37.39
12358;BME280;6243;51.244;6.774;2023-06-14T11:39:44;154490.91;;;27.75;36.68
12358;BME280;6243;51.244;6.774;2023-06-14T11:42:14;154561.78;;;28.02;37.14
12358;BME280;6243;51.244;6.774;2023-06-14T11:44:40;154636.47;;;28.32;36.91
12358;BME280;6243;51.244;6.774;2023-06-14T11:47:06;154686.72;;;28.51;36.57
12358;BME280;6243;51.244;6.774;2023-06-14T11:49:35;154728.00;;;28.67;36.87
12358;BME280;6243;51.244;6.774;2023-06-14T11:52:00;154438.13;;;27.54;37.12
12358;BME280;6243;51.244;6.774;2023-06-14T11:54:28;154478.06;;;27.70;36.87
12358;BME280;6243;51.244;6.774;2023-06-14T11:56:53;154570.81;;;28.06;36.32
12358;BME280;6243;51.244;6.774;2023-06-14T11:59:20;154676.44;;;28.47;36.09
12358;BME280;6243;51.244;6.774;2023-06-14T12:01:47;154740.91;;;28.72;36.49
12358;BME280;6243;51.244;6.774;2023-06-14T12:04:13;154794.97;;;28.94;36.57
12358;BME280;6243;51.244;6.774;2023-06-14T12:06:38;154814.31;;;29.01;35.44
12358;BME280;6243;51.244;6.774;2023-06-14T12:09:04;154655.81;;;28.39;36.52
12358;BME280;6243;51.244;6.774;2023-06-14T12:11:34;154728.00;;;28.67;37.06
12358;BME280;6243;51.244;6.774;2023-06-14T12:14:00;154794.97;;;28.94;35.63
12358;BME280;6243;51.244;6.774;2023-06-14T12:16:30;154850.41;;;29.15;36.33
12358;BME280;6243;51.244;6.774;2023-06-14T12:18:56;154671.28;;;28.45;37.46
12358;BME280;6243;51.244;6.774;2023-06-14T12:21:26;154685.44;;;28.51;37.10
12358;BME280;6243;51.244;6.774;2023-06-14T12:23:52;154649.38;;;28.37;37.36
12358;BME280;6243;51.244;6.774;2023-06-14T12:26:19;154675.16;;;28.47;36.75
12358;BME280;6243;51.244;6.774;2023-06-14T12:28:47;154762.78;;;28.81;36.74
12358;BME280;6243;51.244;6.774;2023-06-14T12:31:13;154738.31;;;28.71;36.73
12358;BME280;6243;51.244;6.774;2023-06-14T12:33:40;154548.84;;;27.97;37.64
12358;BME280;6243;51.244;6.774;2023-06-14T12:36:07;154507.69;;;27.81;38.11
12358;BME280;6243;51.244;6.774;2023-06-14T12:38:33;154474.19;;;27.68;37.96
12358;BME280;6243;51.244;6.774;2023-06-14T12:40:58;154506.41;;;27.81;37.53
12358;BME280;6243;51.244;6.774;2023-06-14T12:43:24;154563.09;;;28.03;37.70
12358;BME280;6243;51.244;6.774;2023-06-14T12:45:51;154617.19;;;28.24;38.38
12358;BME280;6243;51.244;6.774;2023-06-14T12:48:17;154673.84;;;28.46;38.38
12358;BME280;6243;51.244;6.774;2023-06-14T12:50:42;154645.53;;;28.35;37.50
12358;BME280;6243;51.244;6.774;2023-06-14T12:53:08;154681.59;;;28.49;38.10
12358;BME280;6243;51.244;6.774;2023-06-14T12:55:34;154548.84;;;27.97;38.70
12358;BME280;6243;51.244;6.774;2023-06-14T12:57:59;154659.72;;;28.41;38.56